Time;durP1;ratioP1;P1;durP2;ratioP2;P2;SDS_P1;SDS_P2;PMS_P1;PMS_P2;Temp;Humidity;BMP_temperature;BMP_pressure;BME280_temperature;BME280_humidity;BME280_pressure;Samples;Min_cycle;Max_cycle;Signal;HPM_P1;HPM_P2
2021/06/19 00:01:26;;;;;;;9.60;5.90;;;;;;;;;;5021767;28;20034;-48
2021/06/19 00:03:52;;;;;;;8.85;5.88;;;;;;;;;;5011793;28;20030;-49
2021/06/19 00:06:17;;;;;;;7.05;6.30;;;;;;;;;;5014750;28;20113;-50
2021/06/19 00:08:43;;;;;;;8.48;5.55;;;;;;;;;;5015066;28;20045;-49
2021/06/19 00:11:09;;;;;;;10.52;6.40;;;;;;;;;;5025658;28;20037;-51
2021/06/19 00:13:35;;;;;;;6.78;5.72;;;;;;;;;;5012032;28;20115;-49
2021/06/19 00:16:01;;;;;;;8.30;5.93;;;;;;;;;;5024347;28;20488;-48
2021/06/19 00:18:27;;;;;;;6.93;4.88;;;;;;;;;;5024359;28;20029;-49
2021/06/19 00:20:54;;;;;;;7.78;5.40;;;;;;;;;;5018084;28;20382;-49
2021/06/19 00:23:21;;;;;;;6.47;5.25;;;;;;;;;;5025956;28;20040;-47
2021/06/19 00:25:47;;;;;;;7.85;5.55;;;;;;;;;;5026347;28;20123;-47
2021/06/19 00:28:13;;;;;;;8.32;5.25;;;;;;;;;;5019921;28;20026;-48
2021/06/19 00:30:39;;;;;;;6.15;4.90;;;;;;;;;;5028600;28;20033;-47
2021/06/19 00:33:05;;;;;;;6.70;5.55;;;;;;;;;;5018702;28;20050;-49
2021/06/19 00:35:31;;;;;;;6.88;5.63;;;;;;;;;;5021404;28;20113;-49
2021/06/19 00:37:57;;;;;;;9.35;5.78;;;;;;;;;;5018531;28;20108;-47
2021/06/19 00:40:23;;;;;;;6.65;5.80;;;;;;;;;;5031761;28;20175;-47
2021/06/19 00:42:56;;;;;;;11.25;6.57;;;;;;;;;;5017987;28;20029;-49
2021/06/19 00:45:23;;;;;;;8.77;6.50;;;;;;;;;;5019149;28;20048;-48
2021/06/19 00:47:49;;;;;;;7.00;5.50;;;;;;;;;;5027719;28;20100;-47
2021/06/19 00:50:16;;;;;;;9.20;6.32;;;;;;;;;;5031595;28;20033;-47
2021/06/19 00:52:42;;;;;;;8.40;6.63;;;;;;;;;;5015481;28;20061;-47
2021/06/19 00:55:08;;;;;;;9.80;6.40;;;;;;;;;;5022217;28;20037;-47
2021/06/19 00:57:34;;;;;;;8.48;5.80;;;;;;;;;;5018172;28;20470;-47
2021/06/19 01:00:00;;;;;;;11.55;6.65;;;;;;;;;;5027512;28;20418;-47
2021/06/19 01:02:26;;;;;;;8.15;6.32;;;;;;;;;;5031343;28;20406;-47
2021/06/19 01:04:52;;;;;;;9.02;6.82;;;;;;;;;;5019850;28;20109;-47
2021/06/19 01:07:18;;;;;;;7.82;6.28;;;;;;;;;;5010314;28;20040;-50
2021/06/19 01:09:44;;;;;;;9.95;6.80;;;;;;;;;;5018180;28;20034;-46
2021/06/19 01:12:10;;;;;;;8.05;6.57;;;;;;;;;;5019359;28;20026;-46
2021/06/19 01:14:36;;;;;;;11.20;6.18;;;;;;;;;;5022413;28;20479;-47
2021/06/19 01:17:03;;;;;;;9.75;6.78;;;;;;;;;;5019757;28;20080;-46
2021/06/19 01:19:29;;;;;;;7.72;6.80;;;;;;;;;;5026009;28;20527;-46
2021/06/19 01:21:55;;;;;;;10.45;7.30;;;;;;;;;;5027363;28;20022;-46
2021/06/19 01:24:23;;;;;;;8.57;6.88;;;;;;;;;;5019314;28;20045;-46
2021/06/19 01:26:50;;;;;;;8.43;6.40;;;;;;;;;;5020306;28;20029;-48
2021/06/19 01:29:16;;;;;;;7.78;6.75;;;;;;;;;;5018068;28;20030;-46
2021/06/19 01:31:42;;;;;;;9.48;7.00;;;;;;;;;;5029068;28;20488;-46
2021/06/19 01:34:08;;;;;;;12.75;6.93;;;;;;;;;;5019568;28;20080;-47
2021/06/19 01:36:34;;;;;;;11.55;7.22;;;;;;;;;;5024251;28;20028;-47
2021/06/19 01:39:00;;;;;;;7.93;6.68;;;;;;;;;;5024485;28;20033;-48
2021/06/19 01:41:30;;;;;;;8.93;7.00;;;;;;;;;;5023591;28;20609;-46
2021/06/19 01:44:00;;;;;;;11.90;7.25;;;;;;;;;;5024445;28;20026;-46
2021/06/19 01:46:27;;;;;;;10.82;7.78;;;;;;;;;;5018042;28;20030;-46
2021/06/19 01:48:52;;;;;;;8.55;6.78;;;;;;;;;;5022083;28;20381;-46
2021/06/19 01:51:18;;;;;;;7.82;6.85;;;;;;;;;;5021441;28;20029;-47
2021/06/19 01:53:46;;;;;;;9.38;7.10;;;;;;;;;;5029874;28;20492;-46
2021/06/19 01:56:13;;;;;;;9.52;6.90;;;;;;;;;;5022152;28;20084;-46
2021/06/19 01:58:39;;;;;;;12.27;7.95;;;;;;;;;;5024371;28;20053;-46
2021/06/19 02:01:07;;;;;;;9.30;7.63;;;;;;;;;;5029087;28;20111;-48
2021/06/19 02:03:34;;;;;;;13.20;7.32;;;;;;;;;;5016118;28;20053;-48
2021/06/19 02:06:00;;;;;;;11.05;7.28;;;;;;;;;;5010805;28;20034;-49
2021/06/19 02:08:26;;;;;;;12.85;7.13;;;;;;;;;;5015577;28;20041;-48
2021/06/19 02:10:52;;;;;;;13.88;7.35;;;;;;;;;;5030303;28;20036;-48
2021/06/19 02:13:18;;;;;;;10.38;6.82;;;;;;;;;;5021374;28;20682;-48
2021/06/19 02:15:45;;;;;;;8.27;6.80;;;;;;;;;;5018103;28;20029;-48
2021/06/19 02:18:11;;;;;;;10.18;7.43;;;;;;;;;;5032923;28;20053;-49
2021/06/19 02:20:38;;;;;;;8.18;6.88;;;;;;;;;;5019175;28;20094;-48
2021/06/19 02:23:04;;;;;;;9.05;6.82;;;;;;;;;;5015543;28;20041;-49
2021/06/19 02:25:30;;;;;;;7.20;6.40;;;;;;;;;;5019875;28;20030;-48
2021/06/19 02:27:59;;;;;;;8.32;6.43;;;;;;;;;;5017809;28;20393;-48
2021/06/19 02:30:27;;;;;;;8.85;6.57;;;;;;;;;;5017424;28;20164;-49
2021/06/19 02:32:53;;;;;;;8.20;6.82;;;;;;;;;;5006448;28;20489;-49
2021/06/19 02:35:20;;;;;;;8.32;6.80;;;;;;;;;;5024612;28;20108;-50
2021/06/19 02:37:46;;;;;;;9.85;7.20;;;;;;;;;;5020846;28;20022;-49
2021/06/19 02:40:12;;;;;;;10.15;7.22;;;;;;;;;;5029024;28;20117;-48
2021/06/19 02:42:38;;;;;;;7.82;7.05;;;;;;;;;;5017041;28;20033;-49
2021/06/19 02:45:10;;;;;;;9.48;7.60;;;;;;;;;;5021887;28;20052;-48
2021/06/19 02:47:37;;;;;;;9.68;7.25;;;;;;;;;;5032777;28;20029;-48
2021/06/19 02:50:04;;;;;;;9.73;7.70;;;;;;;;;;5029566;28;20129;-48
2021/06/19 02:52:30;;;;;;;11.57;7.30;;;;;;;;;;5020364;28;20083;-48
2021/06/19 02:54:56;;;;;;;8.73;6.93;;;;;;;;;;5032149;28;20490;-49
2021/06/19 02:57:22;;;;;;;9.48;7.38;;;;;;;;;;5016085;28;20022;-48
2021/06/19 02:59:48;;;;;;;9.70;7.18;;;;;;;;;;5023733;28;20026;-49
2021/06/19 03:02:14;;;;;;;10.95;7.53;;;;;;;;;;5020482;28;20026;-50
2021/06/19 03:04:40;;;;;;;11.52;7.22;;;;;;;;;;5015691;28;20478;-49
2021/06/19 03:07:06;;;;;;;10.32;7.85;;;;;;;;;;5024613;28;20029;-49
2021/06/19 03:09:32;;;;;;;10.45;7.57;;;;;;;;;;5016773;28;20480;-48
2021/06/19 03:11:58;;;;;;;10.68;7.72;;;;;;;;;;5030085;28;20076;-50
2021/06/19 03:14:24;;;;;;;11.80;7.82;;;;;;;;;;5019367;28;20504;-48
2021/06/19 03:16:50;;;;;;;8.50;7.43;;;;;;;;;;5032262;28;20029;-49
2021/06/19 03:19:16;;;;;;;10.35;7.43;;;;;;;;;;5030599;28;20068;-49
2021/06/19 03:21:43;;;;;;;9.32;7.72;;;;;;;;;;5026456;28;20052;-48
2021/06/19 03:24:09;;;;;;;9.27;7.55;;;;;;;;;;5019568;28;20116;-48
2021/06/19 03:26:35;;;;;;;8.57;7.38;;;;;;;;;;5017518;28;20077;-48
2021/06/19 03:29:01;;;;;;;11.85;7.13;;;;;;;;;;5019142;28;20047;-48
2021/06/19 03:31:28;;;;;;;10.60;7.78;;;;;;;;;;5030527;28;20030;-49
2021/06/19 03:33:54;;;;;;;8.70;7.53;;;;;;;;;;5013845;28;20478;-48
2021/06/19 03:36:20;;;;;;;9.55;8.02;;;;;;;;;;5016756;28;20116;-48
2021/06/19 03:38:46;;;;;;;8.27;7.38;;;;;;;;;;5026148;28;20171;-49
2021/06/19 03:41:12;;;;;;;8.13;7.28;;;;;;;;;;5021780;28;20026;-48
2021/06/19 03:43:38;;;;;;;11.65;7.95;;;;;;;;;;5017718;28;20054;-48
2021/06/19 03:46:04;;;;;;;9.00;7.68;;;;;;;;;;5008280;28;20023;-48
2021/06/19 03:48:30;;;;;;;10.48;7.63;;;;;;;;;;5021215;28;20557;-51
2021/06/19 03:50:56;;;;;;;9.07;7.85;;;;;;;;;;5029738;28;20044;-48
2021/06/19 03:53:22;;;;;;;8.48;7.30;;;;;;;;;;5016327;28;20029;-48
2021/06/19 03:55:48;;;;;;;9.23;7.55;;;;;;;;;;5027717;28;20025;-49
2021/06/19 03:58:15;;;;;;;12.02;7.10;;;;;;;;;;5017846;28;20494;-49
2021/06/19 04:00:41;;;;;;;8.00;7.07;;;;;;;;;;5021709;28;20033;-49
2021/06/19 04:03:07;;;;;;;9.93;7.95;;;;;;;;;;5015055;28;20061;-49
2021/06/19 04:05:33;;;;;;;10.40;8.18;;;;;;;;;;5013238;28;20109;-49
2021/06/19 04:08:01;;;;;;;9.73;8.43;;;;;;;;;;5020593;28;20482;-50
2021/06/19 04:10:27;;;;;;;10.48;7.93;;;;;;;;;;5029415;28;20033;-48
2021/06/19 04:12:53;;;;;;;9.88;7.97;;;;;;;;;;5020810;28;20132;-48
2021/06/19 04:15:19;;;;;;;8.93;7.60;;;;;;;;;;5014896;28;20026;-49
2021/06/19 04:17:45;;;;;;;11.27;8.68;;;;;;;;;;5023796;28;20044;-48
2021/06/19 04:20:12;;;;;;;11.50;7.97;;;;;;;;;;5027334;28;20033;-50
2021/06/19 04:22:38;;;;;;;10.02;8.07;;;;;;;;;;5015133;28;20108;-49
2021/06/19 04:25:05;;;;;;;11.63;8.82;;;;;;;;;;5019118;28;20049;-48
2021/06/19 04:27:37;;;;;;;9.40;7.63;;;;;;;;;;5012381;28;20060;-48
2021/06/19 04:30:03;;;;;;;10.18;7.78;;;;;;;;;;5021484;28;20124;-50
2021/06/19 04:32:30;;;;;;;10.50;8.13;;;;;;;;;;5029023;28;20038;-50
2021/06/19 04:34:56;;;;;;;9.02;7.35;;;;;;;;;;5011323;28;20385;-49
2021/06/19 04:37:26;;;;;;;9.15;7.80;;;;;;;;;;5028583;28;20033;-48
2021/06/19 04:40:16;;;;;;;9.43;7.55;;;;;;;;;;5019341;28;20029;-49
2021/06/19 04:42:44;;;;;;;14.75;7.35;;;;;;;;;;5021994;28;20096;-49
2021/06/19 04:45:11;;;;;;;9.63;7.43;;;;;;;;;;5018876;28;20041;-49
2021/06/19 04:47:38;;;;;;;10.43;8.30;;;;;;;;;;5016359;28;20030;-49
2021/06/19 04:50:05;;;;;;;10.23;7.30;;;;;;;;;;5027945;28;20087;-49
2021/06/19 04:52:33;;;;;;;7.03;6.30;;;;;;;;;;5031396;28;20028;-48
2021/06/19 04:54:59;;;;;;;9.70;7.47;;;;;;;;;;5027274;28;20137;-48
2021/06/19 04:57:25;;;;;;;12.45;7.88;;;;;;;;;;5021580;28;20033;-49
2021/06/19 04:59:51;;;;;;;9.98;7.97;;;;;;;;;;5016878;28;20029;-49
2021/06/19 05:02:17;;;;;;;10.68;7.13;;;;;;;;;;5026852;28;20492;-49
2021/06/19 05:04:43;;;;;;;9.43;7.15;;;;;;;;;;5016743;28;20454;-48
2021/06/19 05:07:09;;;;;;;7.82;7.03;;;;;;;;;;5032863;28;20125;-48
2021/06/19 05:09:35;;;;;;;12.30;7.55;;;;;;;;;;5018369;28;20655;-48
2021/06/19 05:12:01;;;;;;;9.25;7.43;;;;;;;;;;5025233;28;20018;-50
2021/06/19 05:14:28;;;;;;;10.10;7.47;;;;;;;;;;5016475;28;20054;-49
2021/06/19 05:16:55;;;;;;;9.40;6.50;;;;;;;;;;5018194;28;20080;-49
2021/06/19 05:19:21;;;;;;;10.73;7.70;;;;;;;;;;5032570;28;20084;-49
2021/06/19 05:21:47;;;;;;;9.15;7.13;;;;;;;;;;5017868;28;20033;-49
2021/06/19 05:24:13;;;;;;;7.90;6.68;;;;;;;;;;5021301;28;20021;-50
2021/06/19 05:26:39;;;;;;;9.05;7.65;;;;;;;;;;5026716;28;20052;-48
2021/06/19 05:29:06;;;;;;;7.93;6.60;;;;;;;;;;5022908;28;20726;-49
2021/06/19 05:31:32;;;;;;;10.13;7.38;;;;;;;;;;5028513;28;20040;-49
2021/06/19 05:33:58;;;;;;;10.13;7.10;;;;;;;;;;5017409;28;20117;-48
2021/06/19 05:36:24;;;;;;;11.10;6.93;;;;;;;;;;5029600;28;20029;-51
2021/06/19 05:38:50;;;;;;;9.05;7.72;;;;;;;;;;5010465;28;20033;-50
2021/06/19 05:41:16;;;;;;;9.85;7.25;;;;;;;;;;5029188;28;20037;-48
2021/06/19 05:43:42;;;;;;;7.22;5.80;;;;;;;;;;5017054;28;20489;-49
2021/06/19 05:46:08;;;;;;;11.60;6.85;;;;;;;;;;5014604;28;20037;-48
2021/06/19 05:48:34;;;;;;;8.23;6.93;;;;;;;;;;5007710;28;20022;-48
2021/06/19 05:51:00;;;;;;;10.55;7.45;;;;;;;;;;5017259;28;20034;-48
2021/06/19 05:53:27;;;;;;;13.07;7.22;;;;;;;;;;5016540;28;20037;-48
2021/06/19 05:55:53;;;;;;;8.85;6.60;;;;;;;;;;5021082;28;20069;-47
2021/06/19 05:58:19;;;;;;;10.23;8.27;;;;;;;;;;5027138;28;20054;-47
2021/06/19 06:00:45;;;;;;;9.50;6.70;;;;;;;;;;5019145;28;20034;-48
2021/06/19 06:03:11;;;;;;;8.90;6.82;;;;;;;;;;5029791;28;20041;-48
2021/06/19 06:05:37;;;;;;;11.70;7.63;;;;;;;;;;5015036;28;20117;-48
2021/06/19 06:08:03;;;;;;;12.25;7.07;;;;;;;;;;5023545;28;20030;-48
2021/06/19 06:10:29;;;;;;;10.15;7.57;;;;;;;;;;5026842;28;20538;-48
2021/06/19 06:12:56;;;;;;;9.00;7.10;;;;;;;;;;5013848;28;20021;-50
2021/06/19 06:15:22;;;;;;;13.98;7.22;;;;;;;;;;5017433;28;20030;-48
2021/06/19 06:17:48;;;;;;;11.90;7.40;;;;;;;;;;5024104;28;20033;-48
2021/06/19 06:20:15;;;;;;;11.82;7.38;;;;;;;;;;5023406;28;20155;-48
2021/06/19 06:22:41;;;;;;;8.60;6.90;;;;;;;;;;5018317;28;20030;-48
2021/06/19 06:25:07;;;;;;;8.82;6.93;;;;;;;;;;5018267;28;20056;-47
2021/06/19 06:27:33;;;;;;;7.90;6.97;;;;;;;;;;5020153;28;20034;-47
2021/06/19 06:29:59;;;;;;;8.52;7.00;;;;;;;;;;5026157;28;20029;-48
2021/06/19 06:32:26;;;;;;;9.15;6.45;;;;;;;;;;5025063;28;20088;-46
2021/06/19 06:34:52;;;;;;;10.57;7.50;;;;;;;;;;5025176;28;20445;-46
2021/06/19 06:37:18;;;;;;;11.85;7.28;;;;;;;;;;5032230;28;20039;-46
2021/06/19 06:39:44;;;;;;;8.80;6.43;;;;;;;;;;5018831;28;20059;-46
2021/06/19 06:42:12;;;;;;;7.80;7.00;;;;;;;;;;5018900;28;20090;-47
2021/06/19 06:44:38;;;;;;;6.97;6.28;;;;;;;;;;5012571;28;20061;-49
2021/06/19 06:47:05;;;;;;;12.10;6.75;;;;;;;;;;5019197;28;20123;-47
2021/06/19 06:49:31;;;;;;;14.45;6.65;;;;;;;;;;5019356;28;20025;-46
2021/06/19 06:51:57;;;;;;;8.52;6.50;;;;;;;;;;5017914;28;20506;-46
2021/06/19 06:54:23;;;;;;;8.65;6.10;;;;;;;;;;5022370;28;20053;-46
2021/06/19 06:56:49;;;;;;;10.68;6.95;;;;;;;;;;5021263;28;20030;-46
2021/06/19 06:59:17;;;;;;;8.80;6.43;;;;;;;;;;5016117;28;20462;-48
2021/06/19 07:01:43;;;;;;;10.93;6.78;;;;;;;;;;5023306;28;20087;-46
2021/06/19 07:04:09;;;;;;;7.82;6.35;;;;;;;;;;5018091;28;20052;-48
2021/06/19 07:06:35;;;;;;;9.50;6.70;;;;;;;;;;5021495;28;20458;-46
2021/06/19 07:09:01;;;;;;;10.32;6.72;;;;;;;;;;5031507;28;20554;-47
2021/06/19 07:11:27;;;;;;;9.00;6.47;;;;;;;;;;5022845;28;20044;-46
2021/06/19 07:13:53;;;;;;;10.32;6.95;;;;;;;;;;5028918;28;20440;-46
2021/06/19 07:16:20;;;;;;;10.68;6.00;;;;;;;;;;5029073;28;20064;-46
2021/06/19 07:18:46;;;;;;;7.60;6.32;;;;;;;;;;5021943;28;20038;-49
2021/06/19 07:21:12;;;;;;;10.88;6.72;;;;;;;;;;5014304;28;20112;-46
2021/06/19 07:23:38;;;;;;;10.68;6.25;;;;;;;;;;5018058;28;20371;-46
2021/06/19 07:26:04;;;;;;;8.40;6.32;;;;;;;;;;5013129;28;20030;-49
2021/06/19 07:28:30;;;;;;;7.93;6.07;;;;;;;;;;5026641;28;20108;-47
2021/06/19 07:30:56;;;;;;;8.70;6.47;;;;;;;;;;5018022;28;20037;-47
2021/06/19 07:33:22;;;;;;;10.60;6.10;;;;;;;;;;5022687;28;20034;-47
2021/06/19 07:35:48;;;;;;;10.43;5.82;;;;;;;;;;5017019;28;20037;-48
2021/06/19 07:38:14;;;;;;;9.30;5.95;;;;;;;;;;5013254;28;20026;-48
2021/06/19 07:40:40;;;;;;;10.10;5.78;;;;;;;;;;5032259;28;20083;-47
2021/06/19 07:43:06;;;;;;;8.20;5.88;;;;;;;;;;5027923;28;20038;-49
2021/06/19 07:45:32;;;;;;;10.48;6.28;;;;;;;;;;5013918;28;20030;-48
2021/06/19 07:47:58;;;;;;;6.70;5.60;;;;;;;;;;5019455;28;20053;-47
2021/06/19 07:50:24;;;;;;;6.95;5.68;;;;;;;;;;5007881;28;20043;-48
2021/06/19 07:52:50;;;;;;;8.15;5.05;;;;;;;;;;5031418;28;20030;-47
2021/06/19 07:55:16;;;;;;;11.68;5.90;;;;;;;;;;5013953;28;20036;-49
2021/06/19 07:57:42;;;;;;;7.13;5.60;;;;;;;;;;5012154;28;20026;-47
2021/06/19 08:00:09;;;;;;;7.93;5.30;;;;;;;;;;5019365;28;20025;-48
2021/06/19 08:02:35;;;;;;;6.68;5.10;;;;;;;;;;5025511;28;20064;-47
2021/06/19 08:05:01;;;;;;;8.68;5.25;;;;;;;;;;5010306;28;20022;-47
2021/06/19 08:07:27;;;;;;;10.18;5.70;;;;;;;;;;5017855;28;20107;-49
2021/06/19 08:09:53;;;;;;;8.82;5.78;;;;;;;;;;5019694;28;20088;-50
2021/06/19 08:12:19;;;;;;;6.90;5.50;;;;;;;;;;5023235;28;20028;-47
2021/06/19 08:14:45;;;;;;;10.35;5.28;;;;;;;;;;5019679;28;20448;-47
2021/06/19 08:17:16;;;;;;;5.80;5.05;;;;;;;;;;5019077;28;20033;-49
2021/06/19 08:19:45;;;;;;;6.32;4.75;;;;;;;;;;5015371;28;20033;-47
2021/06/19 08:22:12;;;;;;;9.55;5.72;;;;;;;;;;5013856;28;20148;-47
2021/06/19 08:24:38;;;;;;;6.82;5.88;;;;;;;;;;5021733;28;20034;-50
2021/06/19 08:27:04;;;;;;;6.25;4.80;;;;;;;;;;5024917;28;20030;-47
2021/06/19 08:29:30;;;;;;;10.82;4.68;;;;;;;;;;5012717;28;20115;-48
2021/06/19 08:31:56;;;;;;;6.43;5.18;;;;;;;;;;5014224;28;20029;-47
2021/06/19 08:34:22;;;;;;;10.15;5.18;;;;;;;;;;5021091;28;20033;-47
2021/06/19 08:36:48;;;;;;;8.43;4.45;;;;;;;;;;5016382;28;20033;-48
2021/06/19 08:39:14;;;;;;;5.53;4.45;;;;;;;;;;5017737;28;20034;-48
2021/06/19 08:41:42;;;;;;;6.47;4.80;;;;;;;;;;5014782;28;20030;-47
2021/06/19 08:44:10;;;;;;;6.85;4.82;;;;;;;;;;5021974;28;20034;-48
2021/06/19 08:46:36;;;;;;;6.47;4.57;;;;;;;;;;5024523;28;20444;-48
2021/06/19 08:49:03;;;;;;;5.72;4.00;;;;;;;;;;5017759;28;20034;-48
2021/06/19 08:51:29;;;;;;;7.28;4.85;;;;;;;;;;5030169;28;20208;-48
2021/06/19 08:53:55;;;;;;;4.47;3.90;;;;;;;;;;5019252;28;20093;-48
2021/06/19 08:56:23;;;;;;;5.18;4.50;;;;;;;;;;5014543;28;20052;-48
2021/06/19 08:58:49;;;;;;;11.63;4.68;;;;;;;;;;5015012;28;20022;-47
2021/06/19 09:01:15;;;;;;;9.10;4.40;;;;;;;;;;5016985;28;20107;-47
2021/06/19 09:03:41;;;;;;;5.35;4.18;;;;;;;;;;5013347;28;20069;-48
2021/06/19 09:06:17;;;;;;;9.15;4.40;;;;;;;;;;5011323;28;20045;-47
2021/06/19 09:08:58;;;;;;;9.68;4.35;;;;;;;;;;5013042;28;20052;-48
2021/06/19 09:11:38;;;;;;;9.52;4.25;;;;;;;;;;5008831;28;20136;-47
2021/06/19 09:14:09;;;;;;;5.63;3.90;;;;;;;;;;5012119;28;20053;-48
2021/06/19 09:16:36;;;;;;;9.77;4.70;;;;;;;;;;5011291;28;20045;-48
2021/06/19 09:19:02;;;;;;;5.55;4.20;;;;;;;;;;5018362;28;20508;-48
2021/06/19 09:21:29;;;;;;;6.45;4.57;;;;;;;;;;5023466;28;20045;-49
2021/06/19 09:23:55;;;;;;;7.35;4.18;;;;;;;;;;5030085;28;20028;-52
2021/06/19 09:26:22;;;;;;;5.32;3.90;;;;;;;;;;5019235;28;20040;-48
2021/06/19 09:28:59;;;;;;;5.63;4.53;;;;;;;;;;5019568;28;20090;-49
2021/06/19 09:31:44;;;;;;;6.47;3.80;;;;;;;;;;5023326;28;20496;-48
2021/06/19 09:34:12;;;;;;;7.35;4.00;;;;;;;;;;5021495;28;20038;-48
2021/06/19 09:36:52;;;;;;;4.40;3.78;;;;;;;;;;5014456;28;20105;-47
2021/06/19 09:39:19;;;;;;;8.18;3.72;;;;;;;;;;5014055;28;20026;-48
2021/06/19 09:41:47;;;;;;;4.88;3.15;;;;;;;;;;5009960;28;20072;-48
2021/06/19 09:44:14;;;;;;;2.90;2.38;;;;;;;;;;5014453;28;20501;-48
2021/06/19 09:46:39;;;;;;;5.28;3.35;;;;;;;;;;5016065;28;20072;-48
2021/06/19 09:49:10;;;;;;;3.65;2.83;;;;;;;;;;5017582;28;20022;-49
2021/06/19 09:51:36;;;;;;;4.32;3.35;;;;;;;;;;5014529;28;20385;-48
2021/06/19 09:54:06;;;;;;;6.13;3.40;;;;;;;;;;5024633;28;20188;-48
2021/06/19 09:57:02;;;;;;;5.50;2.83;;;;;;;;;;5021744;28;20079;-48
2021/06/19 09:59:29;;;;;;;5.13;3.50;;;;;;;;;;5024410;28;20060;-47
2021/06/19 10:01:57;;;;;;;5.07;2.92;;;;;;;;;;5025009;28;20046;-51
2021/06/19 10:04:24;;;;;;;7.38;3.35;;;;;;;;;;5018700;28;20040;-52
2021/06/19 10:06:50;;;;;;;3.63;2.78;;;;;;;;;;5024773;28;20029;-49
2021/06/19 10:09:17;;;;;;;3.45;2.97;;;;;;;;;;5029414;28;20037;-47
2021/06/19 10:11:47;;;;;;;4.65;2.80;;;;;;;;;;5024927;28;20476;-47
2021/06/19 10:14:18;;;;;;;4.80;2.95;;;;;;;;;;5025952;28;20045;-48
2021/06/19 10:16:44;;;;;;;3.85;2.85;;;;;;;;;;5021286;28;20034;-48
2021/06/19 10:19:10;;;;;;;3.33;2.72;;;;;;;;;;5029259;28;20025;-48
2021/06/19 10:21:37;;;;;;;4.47;3.53;;;;;;;;;;5027505;28;20036;-48
2021/06/19 10:24:03;;;;;;;4.47;3.63;;;;;;;;;;5017566;28;20108;-48
2021/06/19 10:26:30;;;;;;;6.80;3.40;;;;;;;;;;5013555;28;20029;-48
2021/06/19 10:29:02;;;;;;;3.35;2.70;;;;;;;;;;5008269;28;20529;-47
2021/06/19 10:31:36;;;;;;;5.22;3.15;;;;;;;;;;5033105;28;20037;-49
2021/06/19 10:34:17;;;;;;;9.50;3.13;;;;;;;;;;5011823;28;20054;-48
2021/06/19 10:36:43;;;;;;;5.30;2.80;;;;;;;;;;5017332;28;20029;-49
2021/06/19 10:39:09;;;;;;;5.10;3.00;;;;;;;;;;5023458;28;20037;-48
2021/06/19 10:41:50;;;;;;;3.40;2.83;;;;;;;;;;5027503;28;20369;-49
2021/06/19 10:44:36;;;;;;;5.18;3.28;;;;;;;;;;5023105;28;20022;-49
2021/06/19 10:47:03;;;;;;;3.45;2.80;;;;;;;;;;5002134;28;20117;-48
2021/06/19 10:49:35;;;;;;;6.00;3.50;;;;;;;;;;5021675;28;20121;-48
2021/06/19 10:52:20;;;;;;;5.55;3.40;;;;;;;;;;5033362;28;20498;-49
2021/06/19 10:55:04;;;;;;;7.38;3.60;;;;;;;;;;5020274;28;20029;-48
2021/06/19 10:57:44;;;;;;;3.97;3.53;;;;;;;;;;5014951;28;20032;-48
2021/06/19 11:00:29;;;;;;;5.22;4.15;;;;;;;;;;5016536;28;20087;-49
2021/06/19 11:02:56;;;;;;;3.83;3.30;;;;;;;;;;5011211;28;20176;-48
2021/06/19 11:05:41;;;;;;;5.05;3.85;;;;;;;;;;5021968;28;20086;-49
2021/06/19 11:08:07;;;;;;;7.40;3.88;;;;;;;;;;5027506;28;20072;-52
2021/06/19 11:10:49;;;;;;;5.57;3.30;;;;;;;;;;5016540;28;20040;-51
2021/06/19 11:13:30;;;;;;;4.05;3.42;;;;;;;;;;5015722;28;20079;-49
2021/06/19 11:16:03;;;;;;;5.32;3.45;;;;;;;;;;5018388;28;20030;-51
2021/06/19 11:18:48;;;;;;;3.95;3.22;;;;;;;;;;5017488;28;20021;-49
2021/06/19 11:21:28;;;;;;;4.07;3.15;;;;;;;;;;5018704;28;20052;-48
2021/06/19 11:24:03;;;;;;;7.05;3.60;;;;;;;;;;5033023;28;20033;-48
2021/06/19 11:26:59;;;;;;;6.68;3.88;;;;;;;;;;5025782;28;20072;-47
2021/06/19 11:29:37;;;;;;;7.35;3.50;;;;;;;;;;5029858;28;20033;-50
2021/06/19 11:32:25;;;;;;;4.22;3.25;;;;;;;;;;5024049;28;20076;-47
2021/06/19 11:34:58;;;;;;;6.20;3.45;;;;;;;;;;5014582;28;20457;-47
2021/06/19 11:37:24;;;;;;;4.13;3.47;;;;;;;;;;5022769;28;20044;-47
2021/06/19 11:39:50;;;;;;;6.63;3.50;;;;;;;;;;5016225;28;20111;-47
2021/06/19 11:42:16;;;;;;;10.90;3.75;;;;;;;;;;5017705;28;20033;-48
2021/06/19 11:44:45;;;;;;;5.28;3.30;;;;;;;;;;5025664;28;20130;-48
2021/06/19 11:47:12;;;;;;;12.10;3.35;;;;;;;;;;5017754;28;20037;-47
2021/06/19 11:49:40;;;;;;;3.80;3.10;;;;;;;;;;5016490;28;20041;-47
2021/06/19 11:52:06;;;;;;;7.35;3.28;;;;;;;;;;5017519;28;20087;-47
2021/06/19 11:54:33;;;;;;;6.65;3.50;;;;;;;;;;5017250;28;20026;-48
2021/06/19 11:56:59;;;;;;;8.98;3.20;;;;;;;;;;5017547;28;20021;-49
2021/06/19 11:59:27;;;;;;;6.00;3.80;;;;;;;;;;5018522;28;20425;-49
2021/06/19 12:01:53;;;;;;;8.82;3.38;;;;;;;;;;5012555;28;20473;-47
2021/06/19 12:04:22;;;;;;;5.13;3.83;;;;;;;;;;5011490;28;20022;-49
2021/06/19 12:06:52;;;;;;;6.15;3.50;;;;;;;;;;5021923;28;20038;-48
2021/06/19 12:09:20;;;;;;;4.72;3.65;;;;;;;;;;5020269;28;20037;-48
2021/06/19 12:11:46;;;;;;;6.10;3.10;;;;;;;;;;5015591;28;20117;-48
2021/06/19 12:14:26;;;;;;;6.70;3.38;;;;;;;;;;5031994;28;20025;-48
2021/06/19 12:16:53;;;;;;;4.50;3.22;;;;;;;;;;5023942;28;20026;-48
2021/06/19 12:19:20;;;;;;;6.95;3.97;;;;;;;;;;5013713;28;20525;-50
2021/06/19 12:21:46;;;;;;;8.88;3.78;;;;;;;;;;5014100;28;20771;-52
2021/06/19 12:24:39;;;;;;;8.35;4.20;;;;;;;;;;5026743;28;20490;-47
2021/06/19 12:27:06;;;;;;;8.67;4.20;;;;;;;;;;5012379;28;20042;-48
2021/06/19 12:29:35;;;;;;;7.10;3.58;;;;;;;;;;5015744;28;20033;-47
2021/06/19 12:32:01;;;;;;;4.78;3.83;;;;;;;;;;5024779;28;20042;-48
2021/06/19 12:34:28;;;;;;;6.03;3.97;;;;;;;;;;5014184;28;20458;-48
2021/06/19 12:36:55;;;;;;;9.18;4.43;;;;;;;;;;5010881;28;20030;-47
2021/06/19 12:39:21;;;;;;;4.85;4.30;;;;;;;;;;5024921;28;20030;-47
2021/06/19 12:41:48;;;;;;;5.65;3.80;;;;;;;;;;5016023;28;20065;-48
2021/06/19 12:44:14;;;;;;;6.70;3.85;;;;;;;;;;5031289;28;20072;-48
2021/06/19 12:46:40;;;;;;;3.53;3.20;;;;;;;;;;5011219;28;20026;-50
2021/06/19 12:49:07;;;;;;;4.43;3.67;;;;;;;;;;5016965;28;20041;-49
2021/06/19 12:51:39;;;;;;;7.35;4.38;;;;;;;;;;5016314;28;20091;-48
2021/06/19 12:54:16;;;;;;;7.20;3.50;;;;;;;;;;5014726;28;20030;-49
2021/06/19 12:56:52;;;;;;;7.63;3.53;;;;;;;;;;5015510;28;20438;-49
2021/06/19 12:59:18;;;;;;;4.40;3.67;;;;;;;;;;5030766;28;20021;-49
2021/06/19 13:01:44;;;;;;;7.38;3.30;;;;;;;;;;5016921;28;20057;-49
2021/06/19 13:04:10;;;;;;;6.75;3.08;;;;;;;;;;5015857;28;20417;-48
2021/06/19 13:06:41;;;;;;;7.97;3.17;;;;;;;;;;5012889;28;20068;-48
2021/06/19 13:09:08;;;;;;;7.93;3.17;;;;;;;;;;5017819;28;20033;-48
2021/06/19 13:11:38;;;;;;;5.78;2.40;;;;;;;;;;5033119;28;20014;-49
2021/06/19 13:14:08;;;;;;;8.05;2.75;;;;;;;;;;5034016;28;20022;-49
2021/06/19 13:16:34;;;;;;;5.10;2.25;;;;;;;;;;5021745;28;20026;-49
2021/06/19 13:19:03;;;;;;;4.13;2.58;;;;;;;;;;5032955;28;20030;-48
2021/06/19 13:21:30;;;;;;;3.33;2.90;;;;;;;;;;5015946;28;21354;-48
2021/06/19 13:23:56;;;;;;;7.30;2.55;;;;;;;;;;5028444;28;20087;-48
2021/06/19 13:26:22;;;;;;;5.55;3.10;;;;;;;;;;5016705;28;20034;-48
2021/06/19 13:29:00;;;;;;;4.07;2.60;;;;;;;;;;5019798;28;20060;-48
2021/06/19 13:31:27;;;;;;;11.65;3.13;;;;;;;;;;5020379;28;20033;-48
2021/06/19 13:34:11;;;;;;;3.92;2.10;;;;;;;;;;5020794;28;20057;-50
2021/06/19 13:36:42;;;;;;;3.00;2.40;;;;;;;;;;5020002;28;20032;-50
2021/06/19 13:39:11;;;;;;;8.37;2.60;;;;;;;;;;5023545;28;20037;-48
2021/06/19 13:41:39;;;;;;;5.00;2.40;;;;;;;;;;5016292;28;20041;-52
2021/06/19 13:44:05;;;;;;;3.40;2.20;;;;;;;;;;5024886;28;20091;-49
2021/06/19 13:46:31;;;;;;;3.75;2.13;;;;;;;;;;5016535;28;20561;-47
2021/06/19 13:48:58;;;;;;;7.03;2.85;;;;;;;;;;5017106;28;20037;-46
2021/06/19 13:51:24;;;;;;;5.55;2.17;;;;;;;;;;5020822;28;20128;-48
2021/06/19 13:53:51;;;;;;;9.57;2.75;;;;;;;;;;5022239;28;20038;-48
2021/06/19 13:56:17;;;;;;;3.88;2.08;;;;;;;;;;5020287;28;20460;-50
2021/06/19 13:58:44;;;;;;;9.00;2.53;;;;;;;;;;5020804;28;20079;-46
2021/06/19 14:01:11;;;;;;;7.93;2.38;;;;;;;;;;5018563;28;20030;-48
2021/06/19 14:03:38;;;;;;;7.47;2.10;;;;;;;;;;5024078;28;20473;-46
2021/06/19 14:06:09;;;;;;;6.15;2.40;;;;;;;;;;5014742;28;20037;-48
2021/06/19 14:08:35;;;;;;;3.63;1.97;;;;;;;;;;5023129;28;20029;-47
2021/06/19 14:11:01;;;;;;;4.00;2.13;;;;;;;;;;5034154;28;20291;-46
2021/06/19 14:13:27;;;;;;;4.93;2.20;;;;;;;;;;5016269;28;20428;-47
2021/06/19 14:15:53;;;;;;;3.90;1.88;;;;;;;;;;5017065;28;20053;-48
2021/06/19 14:18:19;;;;;;;4.63;2.38;;;;;;;;;;5012785;28;20030;-47
2021/06/19 14:20:44;;;;;;;8.48;2.92;;;;;;;;;;5032647;28;20044;-48
2021/06/19 14:23:10;;;;;;;4.82;2.03;;;;;;;;;;5032605;28;20084;-49
2021/06/19 14:25:36;;;;;;;7.43;2.30;;;;;;;;;;5017836;28;20038;-49
2021/06/19 14:28:03;;;;;;;3.75;2.40;;;;;;;;;;5019852;28;20096;-46
2021/06/19 14:30:29;;;;;;;4.95;2.25;;;;;;;;;;5013565;28;20033;-46
2021/06/19 14:32:55;;;;;;;4.88;2.45;;;;;;;;;;5022126;28;20499;-47
2021/06/19 14:35:22;;;;;;;7.03;2.45;;;;;;;;;;5020290;28;20045;-46
2021/06/19 14:37:49;;;;;;;5.47;2.55;;;;;;;;;;5026921;28;20429;-47
2021/06/19 14:40:15;;;;;;;7.10;2.65;;;;;;;;;;5022581;28;20037;-49
2021/06/19 14:42:41;;;;;;;6.50;3.00;;;;;;;;;;5016997;28;20190;-46
2021/06/19 14:45:07;;;;;;;5.47;3.10;;;;;;;;;;5013652;28;20037;-47